Bartow, Florida
Current Conditions -  °F | °C
As of 10:47 AM on Saturday 22 Nov 2014 (Local Time) from KBOW Reporting Station
Light Rain Light Rain  
Wind Chill: 19°   Ceiling: 100
Heat Index: 19°   Visibility: 3mi
Dew Point: 19°   Wind: 8mph
Humidity: 100%   Direction: 80°E
Pressure: 30.26"   Gusts: NA
Location:  27.9°N, 81.84°W
Report Text: KBOW 221547Z 08007KT 3SM -RA BKN001 BKN020 OVC025 19/19 A3026
Loading
Personal Weather Stations






























Interactive Weather Map New forecast layout! Learn more

10-Day Weather Forecast

Advertisements
Track Severe Weather on mobile